West Hartford, Connecticut
Current Conditions -  °F | °C
As of 6:53 PM on Wednesday 26 Nov 2014 (Local Time) from KHFD Reporting Station
Light Rain Light Rain  
Wind Chill: -4°   Ceiling: 800
Heat Index:   Visibility: 5mi
Dew Point: -1°   Wind: 14mph
Humidity: 89%   Direction: 350°N
Pressure: 29.78"   Gusts: 24mph
Location:  41.76°N, 72.74°W
Report Text: KHFD 262353Z 35012G21KT 5SM -RA BR OVC008 01/M01 A2978 RMK AO2 CIG 006V013 SLP083 P0006 60056 I1000 I6000 T00111006 10011 20000 56042
Loading
Personal Weather Stations






























Interactive Weather Map New forecast layout! Learn more

10-Day Weather Forecast

Advertisements
Track Severe Weather on mobile